sensor_id;sensor_type;location;lat;lon;timestamp;P1;durP1;ratioP1;P2;durP2;ratioP2
20322;SDS011;10319;52.206;20.996;2022-08-26T00:01:39;9.45;;;2.10;;
20322;SDS011;10319;52.206;20.996;2022-08-26T00:04:05;8.63;;;2.10;;
20322;SDS011;10319;52.206;20.996;2022-08-26T00:06:31;9.73;;;2.28;;
20322;SDS011;10319;52.206;20.996;2022-08-26T00:08:56;11.68;;;2.53;;
20322;SDS011;10319;52.206;20.996;2022-08-26T00:11:22;10.90;;;2.50;;
20322;SDS011;10319;52.206;20.996;2022-08-26T00:13:47;11.43;;;2.03;;
20322;SDS011;10319;52.206;20.996;2022-08-26T00:16:12;9.80;;;2.17;;
20322;SDS011;10319;52.206;20.996;2022-08-26T00:18:38;9.20;;;2.40;;
20322;SDS011;10319;52.206;20.996;2022-08-26T00:21:04;9.13;;;2.10;;
20322;SDS011;10319;52.206;20.996;2022-08-26T00:23:29;8.05;;;2.25;;
20322;SDS011;10319;52.206;20.996;2022-08-26T00:25:55;8.55;;;1.98;;
20322;SDS011;10319;52.206;20.996;2022-08-26T00:28:20;9.60;;;2.55;;
20322;SDS011;10319;52.206;20.996;2022-08-26T00:30:45;8.25;;;2.30;;
20322;SDS011;10319;52.206;20.996;2022-08-26T00:33:16;9.68;;;2.30;;
20322;SDS011;10319;52.206;20.996;2022-08-26T00:35:42;10.00;;;2.38;;
20322;SDS011;10319;52.206;20.996;2022-08-26T00:38:08;10.82;;;2.40;;
20322;SDS011;10319;52.206;20.996;2022-08-26T00:40:35;11.82;;;2.50;;
20322;SDS011;10319;52.206;20.996;2022-08-26T00:43:01;9.27;;;2.47;;
20322;SDS011;10319;52.206;20.996;2022-08-26T00:45:27;8.30;;;2.17;;
20322;SDS011;10319;52.206;20.996;2022-08-26T00:47:59;9.48;;;2.40;;
20322;SDS011;10319;52.206;20.996;2022-08-26T00:50:26;11.63;;;2.45;;
20322;SDS011;10319;52.206;20.996;2022-08-26T00:52:53;8.95;;;2.20;;
20322;SDS011;10319;52.206;20.996;2022-08-26T00:57:50;7.38;;;2.20;;
20322;SDS011;10319;52.206;20.996;2022-08-26T01:00:18;8.20;;;1.98;;
20322;SDS011;10319;52.206;20.996;2022-08-26T01:02:45;6.75;;;2.10;;
20322;SDS011;10319;52.206;20.996;2022-08-26T01:05:10;10.18;;;2.38;;
20322;SDS011;10319;52.206;20.996;2022-08-26T01:07:35;7.80;;;2.28;;
20322;SDS011;10319;52.206;20.996;2022-08-26T01:10:02;11.50;;;2.60;;
20322;SDS011;10319;52.206;20.996;2022-08-26T01:12:30;7.82;;;2.17;;
20322;SDS011;10319;52.206;20.996;2022-08-26T01:14:56;11.00;;;2.42;;
20322;SDS011;10319;52.206;20.996;2022-08-26T01:17:21;8.38;;;2.38;;
20322;SDS011;10319;52.206;20.996;2022-08-26T01:19:51;7.60;;;2.10;;
20322;SDS011;10319;52.206;20.996;2022-08-26T01:24:46;9.00;;;2.20;;
20322;SDS011;10319;52.206;20.996;2022-08-26T01:27:12;10.05;;;2.63;;
20322;SDS011;10319;52.206;20.996;2022-08-26T01:29:40;8.48;;;2.20;;
20322;SDS011;10319;52.206;20.996;2022-08-26T01:32:07;12.52;;;2.55;;
20322;SDS011;10319;52.206;20.996;2022-08-26T01:34:34;11.45;;;2.50;;
20322;SDS011;10319;52.206;20.996;2022-08-26T01:37:07;11.68;;;2.60;;
20322;SDS011;10319;52.206;20.996;2022-08-26T01:39:34;8.65;;;2.47;;
20322;SDS011;10319;52.206;20.996;2022-08-26T01:42:00;10.25;;;2.38;;
20322;SDS011;10319;52.206;20.996;2022-08-26T01:44:33;9.10;;;2.53;;
20322;SDS011;10319;52.206;20.996;2022-08-26T01:47:00;10.57;;;2.42;;
20322;SDS011;10319;52.206;20.996;2022-08-26T01:49:26;8.82;;;2.35;;
20322;SDS011;10319;52.206;20.996;2022-08-26T01:51:52;9.65;;;2.20;;
20322;SDS011;10319;52.206;20.996;2022-08-26T01:54:18;9.68;;;2.28;;
20322;SDS011;10319;52.206;20.996;2022-08-26T01:56:44;10.02;;;2.63;;
20322;SDS011;10319;52.206;20.996;2022-08-26T01:59:10;8.32;;;2.22;;
20322;SDS011;10319;52.206;20.996;2022-08-26T02:01:38;8.82;;;2.30;;
20322;SDS011;10319;52.206;20.996;2022-08-26T02:06:38;10.38;;;2.40;;
20322;SDS011;10319;52.206;20.996;2022-08-26T02:09:03;8.80;;;2.05;;
20322;SDS011;10319;52.206;20.996;2022-08-26T02:11:28;8.82;;;2.28;;
20322;SDS011;10319;52.206;20.996;2022-08-26T02:13:54;7.57;;;2.10;;
20322;SDS011;10319;52.206;20.996;2022-08-26T02:16:23;9.07;;;2.20;;
20322;SDS011;10319;52.206;20.996;2022-08-26T02:18:49;10.68;;;2.45;;
20322;SDS011;10319;52.206;20.996;2022-08-26T02:21:15;8.90;;;2.30;;
20322;SDS011;10319;52.206;20.996;2022-08-26T02:23:41;8.23;;;2.13;;
20322;SDS011;10319;52.206;20.996;2022-08-26T02:26:11;9.23;;;2.22;;
20322;SDS011;10319;52.206;20.996;2022-08-26T02:28:43;8.60;;;2.30;;
20322;SDS011;10319;52.206;20.996;2022-08-26T02:31:10;8.70;;;2.28;;
20322;SDS011;10319;52.206;20.996;2022-08-26T02:33:35;8.45;;;2.45;;
20322;SDS011;10319;52.206;20.996;2022-08-26T02:36:00;9.60;;;2.20;;
20322;SDS011;10319;52.206;20.996;2022-08-26T02:38:25;7.88;;;2.03;;
20322;SDS011;10319;52.206;20.996;2022-08-26T02:40:51;9.95;;;2.28;;
20322;SDS011;10319;52.206;20.996;2022-08-26T02:43:16;9.95;;;2.50;;
20322;SDS011;10319;52.206;20.996;2022-08-26T02:45:42;10.80;;;2.45;;
20322;SDS011;10319;52.206;20.996;2022-08-26T02:48:15;10.32;;;2.40;;
20322;SDS011;10319;52.206;20.996;2022-08-26T02:50:41;8.80;;;2.40;;
20322;SDS011;10319;52.206;20.996;2022-08-26T02:53:06;9.40;;;2.30;;
20322;SDS011;10319;52.206;20.996;2022-08-26T02:55:32;9.90;;;2.30;;
20322;SDS011;10319;52.206;20.996;2022-08-26T02:57:57;8.73;;;2.40;;
20322;SDS011;10319;52.206;20.996;2022-08-26T03:00:23;8.63;;;2.20;;
20322;SDS011;10319;52.206;20.996;2022-08-26T03:02:48;8.63;;;2.20;;
20322;SDS011;10319;52.206;20.996;2022-08-26T03:05:14;9.75;;;2.55;;
20322;SDS011;10319;52.206;20.996;2022-08-26T03:07:40;11.93;;;2.63;;
20322;SDS011;10319;52.206;20.996;2022-08-26T03:10:06;11.87;;;2.47;;
20322;SDS011;10319;52.206;20.996;2022-08-26T03:12:31;10.98;;;2.60;;
20322;SDS011;10319;52.206;20.996;2022-08-26T03:14:56;9.18;;;2.60;;
20322;SDS011;10319;52.206;20.996;2022-08-26T03:17:21;8.65;;;2.30;;
20322;SDS011;10319;52.206;20.996;2022-08-26T03:19:47;9.00;;;2.50;;
20322;SDS011;10319;52.206;20.996;2022-08-26T03:22:12;8.77;;;2.30;;
20322;SDS011;10319;52.206;20.996;2022-08-26T03:24:38;8.85;;;2.00;;
20322;SDS011;10319;52.206;20.996;2022-08-26T03:27:03;10.30;;;2.47;;
20322;SDS011;10319;52.206;20.996;2022-08-26T03:29:28;13.55;;;2.83;;
20322;SDS011;10319;52.206;20.996;2022-08-26T03:32:12;7.97;;;1.92;;
20322;SDS011;10319;52.206;20.996;2022-08-26T03:34:38;10.98;;;2.42;;
20322;SDS011;10319;52.206;20.996;2022-08-26T03:37:03;10.17;;;2.57;;
20322;SDS011;10319;52.206;20.996;2022-08-26T03:39:28;8.98;;;2.42;;
20322;SDS011;10319;52.206;20.996;2022-08-26T03:41:54;9.55;;;2.40;;
20322;SDS011;10319;52.206;20.996;2022-08-26T03:44:19;7.47;;;2.25;;
20322;SDS011;10319;52.206;20.996;2022-08-26T03:46:44;8.13;;;2.10;;
20322;SDS011;10319;52.206;20.996;2022-08-26T03:49:10;10.02;;;2.40;;
20322;SDS011;10319;52.206;20.996;2022-08-26T03:51:36;9.23;;;2.33;;
20322;SDS011;10319;52.206;20.996;2022-08-26T03:54:01;8.82;;;2.08;;
20322;SDS011;10319;52.206;20.996;2022-08-26T03:56:27;9.48;;;2.55;;
20322;SDS011;10319;52.206;20.996;2022-08-26T03:58:52;10.43;;;2.50;;
20322;SDS011;10319;52.206;20.996;2022-08-26T04:01:18;9.25;;;2.38;;
20322;SDS011;10319;52.206;20.996;2022-08-26T04:03:43;7.70;;;2.17;;
20322;SDS011;10319;52.206;20.996;2022-08-26T04:08:49;7.20;;;2.00;;
20322;SDS011;10319;52.206;20.996;2022-08-26T04:11:15;9.75;;;2.28;;
20322;SDS011;10319;52.206;20.996;2022-08-26T04:13:42;7.72;;;2.20;;
20322;SDS011;10319;52.206;20.996;2022-08-26T04:16:07;8.18;;;2.10;;
20322;SDS011;10319;52.206;20.996;2022-08-26T04:18:32;7.32;;;2.00;;
20322;SDS011;10319;52.206;20.996;2022-08-26T04:21:00;9.70;;;2.40;;
20322;SDS011;10319;52.206;20.996;2022-08-26T04:23:25;9.50;;;2.20;;
20322;SDS011;10319;52.206;20.996;2022-08-26T04:25:51;9.63;;;2.10;;
20322;SDS011;10319;52.206;20.996;2022-08-26T04:28:16;10.77;;;2.20;;
20322;SDS011;10319;52.206;20.996;2022-08-26T04:30:41;10.07;;;2.30;;
20322;SDS011;10319;52.206;20.996;2022-08-26T04:33:07;10.48;;;2.40;;
20322;SDS011;10319;52.206;20.996;2022-08-26T04:35:32;8.15;;;2.15;;
20322;SDS011;10319;52.206;20.996;2022-08-26T04:37:59;9.27;;;2.30;;
20322;SDS011;10319;52.206;20.996;2022-08-26T04:40:24;6.87;;;2.03;;
20322;SDS011;10319;52.206;20.996;2022-08-26T04:42:51;12.38;;;2.45;;
20322;SDS011;10319;52.206;20.996;2022-08-26T04:45:16;9.15;;;2.10;;
20322;SDS011;10319;52.206;20.996;2022-08-26T04:47:42;8.52;;;2.10;;
20322;SDS011;10319;52.206;20.996;2022-08-26T04:50:07;11.23;;;2.28;;
20322;SDS011;10319;52.206;20.996;2022-08-26T04:52:32;9.02;;;2.10;;
20322;SDS011;10319;52.206;20.996;2022-08-26T04:54:58;10.40;;;2.30;;
20322;SDS011;10319;52.206;20.996;2022-08-26T04:57:23;8.77;;;2.20;;
20322;SDS011;10319;52.206;20.996;2022-08-26T04:59:48;10.00;;;2.27;;
20322;SDS011;10319;52.206;20.996;2022-08-26T05:02:13;8.50;;;2.13;;
20322;SDS011;10319;52.206;20.996;2022-08-26T05:04:38;7.40;;;2.05;;
20322;SDS011;10319;52.206;20.996;2022-08-26T05:07:07;9.60;;;2.10;;
20322;SDS011;10319;52.206;20.996;2022-08-26T05:09:33;7.97;;;2.00;;
20322;SDS011;10319;52.206;20.996;2022-08-26T05:11:58;8.88;;;2.10;;
20322;SDS011;10319;52.206;20.996;2022-08-26T05:14:23;8.10;;;1.98;;
20322;SDS011;10319;52.206;20.996;2022-08-26T05:16:49;9.23;;;2.20;;
20322;SDS011;10319;52.206;20.996;2022-08-26T05:19:15;8.77;;;2.10;;
20322;SDS011;10319;52.206;20.996;2022-08-26T05:21:40;11.32;;;2.25;;
20322;SDS011;10319;52.206;20.996;2022-08-26T05:24:06;9.82;;;2.30;;
20322;SDS011;10319;52.206;20.996;2022-08-26T05:26:31;9.68;;;2.20;;
20322;SDS011;10319;52.206;20.996;2022-08-26T05:28:57;8.63;;;2.00;;
20322;SDS011;10319;52.206;20.996;2022-08-26T05:31:24;7.43;;;2.00;;
20322;SDS011;10319;52.206;20.996;2022-08-26T05:33:50;6.03;;;1.80;;
20322;SDS011;10319;52.206;20.996;2022-08-26T05:36:17;7.50;;;2.20;;
20322;SDS011;10319;52.206;20.996;2022-08-26T05:38:43;10.88;;;2.13;;
20322;SDS011;10319;52.206;20.996;2022-08-26T05:41:12;13.50;;;2.70;;
20322;SDS011;10319;52.206;20.996;2022-08-26T05:43:38;11.30;;;2.40;;
20322;SDS011;10319;52.206;20.996;2022-08-26T05:46:05;14.20;;;2.60;;
20322;SDS011;10319;52.206;20.996;2022-08-26T05:48:30;14.30;;;2.75;;
20322;SDS011;10319;52.206;20.996;2022-08-26T05:50:55;12.13;;;2.70;;
20322;SDS011;10319;52.206;20.996;2022-08-26T05:53:20;12.38;;;2.70;;
20322;SDS011;10319;52.206;20.996;2022-08-26T05:55:48;9.35;;;2.30;;
20322;SDS011;10319;52.206;20.996;2022-08-26T05:58:13;13.35;;;2.78;;
20322;SDS011;10319;52.206;20.996;2022-08-26T06:00:39;11.43;;;2.40;;
20322;SDS011;10319;52.206;20.996;2022-08-26T06:03:04;9.70;;;2.35;;
20322;SDS011;10319;52.206;20.996;2022-08-26T06:05:29;12.50;;;2.63;;
20322;SDS011;10319;52.206;20.996;2022-08-26T06:07:55;10.82;;;2.42;;
20322;SDS011;10319;52.206;20.996;2022-08-26T06:10:44;11.20;;;2.22;;
20322;SDS011;10319;52.206;20.996;2022-08-26T06:13:10;6.95;;;1.90;;
20322;SDS011;10319;52.206;20.996;2022-08-26T06:15:42;8.45;;;2.10;;
20322;SDS011;10319;52.206;20.996;2022-08-26T06:18:09;12.15;;;2.30;;
20322;SDS011;10319;52.206;20.996;2022-08-26T06:20:34;11.88;;;2.83;;
20322;SDS011;10319;52.206;20.996;2022-08-26T06:23:00;9.82;;;2.45;;
20322;SDS011;10319;52.206;20.996;2022-08-26T06:25:44;11.07;;;2.40;;
20322;SDS011;10319;52.206;20.996;2022-08-26T06:28:09;13.77;;;2.45;;
20322;SDS011;10319;52.206;20.996;2022-08-26T06:30:38;10.27;;;2.20;;
20322;SDS011;10319;52.206;20.996;2022-08-26T06:33:04;8.70;;;2.25;;
20322;SDS011;10319;52.206;20.996;2022-08-26T06:35:34;11.77;;;2.72;;
20322;SDS011;10319;52.206;20.996;2022-08-26T06:37:59;11.27;;;2.60;;
20322;SDS011;10319;52.206;20.996;2022-08-26T06:40:24;9.63;;;2.10;;
20322;SDS011;10319;52.206;20.996;2022-08-26T06:42:50;12.52;;;2.72;;
20322;SDS011;10319;52.206;20.996;2022-08-26T06:45:15;9.75;;;2.40;;
20322;SDS011;10319;52.206;20.996;2022-08-26T06:47:40;11.38;;;2.45;;
20322;SDS011;10319;52.206;20.996;2022-08-26T06:50:06;9.88;;;2.20;;
20322;SDS011;10319;52.206;20.996;2022-08-26T06:52:31;8.73;;;2.05;;
20322;SDS011;10319;52.206;20.996;2022-08-26T06:54:56;8.00;;;2.20;;
20322;SDS011;10319;52.206;20.996;2022-08-26T06:57:21;8.53;;;2.30;;
20322;SDS011;10319;52.206;20.996;2022-08-26T06:59:46;13.80;;;2.60;;
20322;SDS011;10319;52.206;20.996;2022-08-26T07:02:12;10.00;;;2.00;;
20322;SDS011;10319;52.206;20.996;2022-08-26T07:04:38;9.38;;;2.15;;
20322;SDS011;10319;52.206;20.996;2022-08-26T07:07:03;7.40;;;1.90;;
20322;SDS011;10319;52.206;20.996;2022-08-26T07:09:29;9.30;;;2.10;;
20322;SDS011;10319;52.206;20.996;2022-08-26T07:11:57;7.55;;;1.90;;
20322;SDS011;10319;52.206;20.996;2022-08-26T07:14:22;10.68;;;2.05;;
20322;SDS011;10319;52.206;20.996;2022-08-26T07:16:49;6.47;;;1.90;;
20322;SDS011;10319;52.206;20.996;2022-08-26T07:19:14;10.75;;;2.50;;
20322;SDS011;10319;52.206;20.996;2022-08-26T07:21:41;9.20;;;2.30;;
20322;SDS011;10319;52.206;20.996;2022-08-26T07:24:07;9.38;;;2.20;;
20322;SDS011;10319;52.206;20.996;2022-08-26T07:26:32;7.15;;;1.77;;
20322;SDS011;10319;52.206;20.996;2022-08-26T07:28:57;8.80;;;1.90;;
20322;SDS011;10319;52.206;20.996;2022-08-26T07:31:24;9.20;;;2.05;;
20322;SDS011;10319;52.206;20.996;2022-08-26T07:33:49;8.60;;;2.03;;
20322;SDS011;10319;52.206;20.996;2022-08-26T07:36:14;7.93;;;1.92;;
20322;SDS011;10319;52.206;20.996;2022-08-26T07:38:40;8.88;;;2.00;;
20322;SDS011;10319;52.206;20.996;2022-08-26T07:41:06;7.85;;;1.88;;
20322;SDS011;10319;52.206;20.996;2022-08-26T07:43:32;6.82;;;1.90;;
20322;SDS011;10319;52.206;20.996;2022-08-26T07:45:58;9.18;;;1.92;;
20322;SDS011;10319;52.206;20.996;2022-08-26T07:48:23;9.13;;;2.00;;
20322;SDS011;10319;52.206;20.996;2022-08-26T07:50:48;9.23;;;2.13;;
20322;SDS011;10319;52.206;20.996;2022-08-26T07:53:14;8.35;;;1.95;;
20322;SDS011;10319;52.206;20.996;2022-08-26T07:55:39;6.47;;;1.70;;
20322;SDS011;10319;52.206;20.996;2022-08-26T07:58:05;7.03;;;1.58;;
20322;SDS011;10319;52.206;20.996;2022-08-26T08:00:30;9.18;;;2.00;;
20322;SDS011;10319;52.206;20.996;2022-08-26T08:02:57;10.02;;;2.25;;
20322;SDS011;10319;52.206;20.996;2022-08-26T08:05:22;9.07;;;2.17;;
20322;SDS011;10319;52.206;20.996;2022-08-26T08:07:48;9.00;;;2.15;;
20322;SDS011;10319;52.206;20.996;2022-08-26T08:10:19;8.43;;;2.20;;
20322;SDS011;10319;52.206;20.996;2022-08-26T08:12:44;6.85;;;1.90;;
20322;SDS011;10319;52.206;20.996;2022-08-26T08:15:11;7.55;;;1.90;;
20322;SDS011;10319;52.206;20.996;2022-08-26T08:17:39;10.13;;;2.25;;
20322;SDS011;10319;52.206;20.996;2022-08-26T08:20:07;11.43;;;2.20;;
20322;SDS011;10319;52.206;20.996;2022-08-26T08:22:33;8.82;;;2.17;;
20322;SDS011;10319;52.206;20.996;2022-08-26T08:24:59;8.82;;;2.28;;
20322;SDS011;10319;52.206;20.996;2022-08-26T08:27:24;8.82;;;2.15;;
20322;SDS011;10319;52.206;20.996;2022-08-26T08:29:50;10.48;;;2.10;;
20322;SDS011;10319;52.206;20.996;2022-08-26T08:32:18;10.80;;;2.50;;
20322;SDS011;10319;52.206;20.996;2022-08-26T08:34:43;8.95;;;1.95;;
20322;SDS011;10319;52.206;20.996;2022-08-26T08:37:08;10.97;;;2.27;;
20322;SDS011;10319;52.206;20.996;2022-08-26T08:39:33;6.93;;;2.10;;
20322;SDS011;10319;52.206;20.996;2022-08-26T08:44:43;7.93;;;2.00;;
20322;SDS011;10319;52.206;20.996;2022-08-26T08:47:54;9.20;;;2.28;;
20322;SDS011;10319;52.206;20.996;2022-08-26T08:49:59;8.65;;;2.08;;
20322;SDS011;10319;52.206;20.996;2022-08-26T08:52:28;10.95;;;2.42;;
20322;SDS011;10319;52.206;20.996;2022-08-26T08:54:54;9.88;;;2.28;;
20322;SDS011;10319;52.206;20.996;2022-08-26T08:57:22;7.65;;;2.17;;
20322;SDS011;10319;52.206;20.996;2022-08-26T08:59:59;8.45;;;2.30;;
20322;SDS011;10319;52.206;20.996;2022-08-26T09:05:02;9.10;;;2.10;;
20322;SDS011;10319;52.206;20.996;2022-08-26T09:10:03;10.80;;;2.35;;
20322;SDS011;10319;52.206;20.996;2022-08-26T09:12:29;8.85;;;2.30;;
20322;SDS011;10319;52.206;20.996;2022-08-26T09:15:06;6.60;;;1.95;;
20322;SDS011;10319;52.206;20.996;2022-08-26T09:17:49;10.63;;;2.30;;
20322;SDS011;10319;52.206;20.996;2022-08-26T09:20:28;7.53;;;2.08;;
20322;SDS011;10319;52.206;20.996;2022-08-26T09:22:56;7.88;;;2.17;;
20322;SDS011;10319;52.206;20.996;2022-08-26T09:25:22;8.88;;;2.05;;
20322;SDS011;10319;52.206;20.996;2022-08-26T09:27:48;7.90;;;2.00;;
20322;SDS011;10319;52.206;20.996;2022-08-26T09:30:19;12.60;;;2.15;;
20322;SDS011;10319;52.206;20.996;2022-08-26T09:32:55;8.75;;;2.20;;
20322;SDS011;10319;52.206;20.996;2022-08-26T09:35:23;9.23;;;2.30;;
20322;SDS011;10319;52.206;20.996;2022-08-26T09:37:49;11.48;;;2.33;;
20322;SDS011;10319;52.206;20.996;2022-08-26T09:43:14;9.95;;;2.20;;
20322;SDS011;10319;52.206;20.996;2022-08-26T09:45:41;8.60;;;2.10;;
20322;SDS011;10319;52.206;20.996;2022-08-26T09:48:07;7.95;;;1.95;;
20322;SDS011;10319;52.206;20.996;2022-08-26T09:50:49;10.05;;;2.05;;
20322;SDS011;10319;52.206;20.996;2022-08-26T09:53:23;8.23;;;1.88;;
20322;SDS011;10319;52.206;20.996;2022-08-26T09:55:51;6.80;;;2.13;;
20322;SDS011;10319;52.206;20.996;2022-08-26T10:00:58;9.50;;;1.98;;
20322;SDS011;10319;52.206;20.996;2022-08-26T10:03:26;11.35;;;2.20;;
20322;SDS011;10319;52.206;20.996;2022-08-26T10:05:57;9.70;;;2.30;;
20322;SDS011;10319;52.206;20.996;2022-08-26T10:08:25;10.85;;;2.00;;
20322;SDS011;10319;52.206;20.996;2022-08-26T10:10:51;6.22;;;1.92;;
20322;SDS011;10319;52.206;20.996;2022-08-26T10:13:27;7.82;;;1.83;;
20322;SDS011;10319;52.206;20.996;2022-08-26T10:18:26;8.70;;;1.90;;
20322;SDS011;10319;52.206;20.996;2022-08-26T10:23:28;8.65;;;1.92;;
20322;SDS011;10319;52.206;20.996;2022-08-26T10:25:55;8.20;;;2.10;;
20322;SDS011;10319;52.206;20.996;2022-08-26T10:28:36;8.80;;;2.10;;
20322;SDS011;10319;52.206;20.996;2022-08-26T10:31:03;6.43;;;1.90;;
20322;SDS011;10319;52.206;20.996;2022-08-26T10:33:30;9.10;;;2.10;;
20322;SDS011;10319;52.206;20.996;2022-08-26T10:35:57;7.90;;;1.95;;
20322;SDS011;10319;52.206;20.996;2022-08-26T10:38:25;9.07;;;1.90;;
20322;SDS011;10319;52.206;20.996;2022-08-26T10:43:25;9.38;;;2.25;;
20322;SDS011;10319;52.206;20.996;2022-08-26T10:45:53;10.40;;;2.20;;
20322;SDS011;10319;52.206;20.996;2022-08-26T10:48:38;10.55;;;2.33;;
20322;SDS011;10319;52.206;20.996;2022-08-26T10:51:05;7.53;;;2.05;;
20322;SDS011;10319;52.206;20.996;2022-08-26T11:06:31;8.23;;;2.20;;
20322;SDS011;10319;52.206;20.996;2022-08-26T11:09:01;8.73;;;2.42;;
20322;SDS011;10319;52.206;20.996;2022-08-26T11:18:57;10.60;;;2.65;;
20322;SDS011;10319;52.206;20.996;2022-08-26T11:26:54;9.85;;;2.55;;
20322;SDS011;10319;52.206;20.996;2022-08-26T11:29:45;7.10;;;2.17;;
20322;SDS011;10319;52.206;20.996;2022-08-26T11:32:05;7.85;;;2.20;;
20322;SDS011;10319;52.206;20.996;2022-08-26T11:34:53;8.30;;;2.35;;
20322;SDS011;10319;52.206;20.996;2022-08-26T11:37:19;10.95;;;2.45;;
20322;SDS011;10319;52.206;20.996;2022-08-26T11:39:46;9.63;;;2.45;;
20322;SDS011;10319;52.206;20.996;2022-08-26T11:42:18;8.32;;;2.38;;
20322;SDS011;10319;52.206;20.996;2022-08-26T11:44:46;8.60;;;2.40;;
20322;SDS011;10319;52.206;20.996;2022-08-26T11:47:12;11.93;;;2.50;;
20322;SDS011;10319;52.206;20.996;2022-08-26T11:49:38;8.35;;;2.15;;
20322;SDS011;10319;52.206;20.996;2022-08-26T11:52:07;7.15;;;2.20;;
20322;SDS011;10319;52.206;20.996;2022-08-26T11:54:33;9.25;;;2.30;;
20322;SDS011;10319;52.206;20.996;2022-08-26T11:56:58;7.43;;;2.40;;
20322;SDS011;10319;52.206;20.996;2022-08-26T11:59:25;9.07;;;2.40;;
20322;SDS011;10319;52.206;20.996;2022-08-26T12:01:57;10.88;;;2.65;;
20322;SDS011;10319;52.206;20.996;2022-08-26T12:04:33;7.55;;;2.08;;
20322;SDS011;10319;52.206;20.996;2022-08-26T12:07:01;8.30;;;2.17;;
20322;SDS011;10319;52.206;20.996;2022-08-26T12:09:29;8.73;;;2.30;;
20322;SDS011;10319;52.206;20.996;2022-08-26T12:14:43;8.35;;;2.25;;
20322;SDS011;10319;52.206;20.996;2022-08-26T12:17:13;9.00;;;2.38;;
20322;SDS011;10319;52.206;20.996;2022-08-26T12:19:39;9.75;;;2.40;;
20322;SDS011;10319;52.206;20.996;2022-08-26T12:22:17;7.90;;;2.30;;
20322;SDS011;10319;52.206;20.996;2022-08-26T12:24:45;10.95;;;2.40;;
20322;SDS011;10319;52.206;20.996;2022-08-26T12:29:36;12.90;;;2.47;;
20322;SDS011;10319;52.206;20.996;2022-08-26T12:32:06;10.07;;;2.33;;
20322;SDS011;10319;52.206;20.996;2022-08-26T12:34:32;6.90;;;2.10;;
20322;SDS011;10319;52.206;20.996;2022-08-26T12:36:57;7.20;;;2.10;;
20322;SDS011;10319;52.206;20.996;2022-08-26T12:39:34;7.45;;;2.00;;
20322;SDS011;10319;52.206;20.996;2022-08-26T12:42:42;7.43;;;2.13;;
20322;SDS011;10319;52.206;20.996;2022-08-26T12:49:46;9.35;;;2.28;;
20322;SDS011;10319;52.206;20.996;2022-08-26T12:52:19;7.60;;;2.10;;
20322;SDS011;10319;52.206;20.996;2022-08-26T12:54:54;6.75;;;2.05;;
20322;SDS011;10319;52.206;20.996;2022-08-26T12:57:27;10.93;;;2.45;;
20322;SDS011;10319;52.206;20.996;2022-08-26T12:59:53;7.88;;;2.00;;
20322;SDS011;10319;52.206;20.996;2022-08-26T13:02:34;8.98;;;2.42;;
20322;SDS011;10319;52.206;20.996;2022-08-26T13:04:59;9.95;;;2.40;;
20322;SDS011;10319;52.206;20.996;2022-08-26T13:07:24;10.70;;;2.33;;
20322;SDS011;10319;52.206;20.996;2022-08-26T13:09:51;6.25;;;1.98;;
20322;SDS011;10319;52.206;20.996;2022-08-26T13:12:24;9.13;;;2.05;;
20322;SDS011;10319;52.206;20.996;2022-08-26T13:14:49;8.68;;;2.38;;
20322;SDS011;10319;52.206;20.996;2022-08-26T13:17:15;8.40;;;2.07;;
20322;SDS011;10319;52.206;20.996;2022-08-26T13:19:40;6.88;;;2.25;;
20322;SDS011;10319;52.206;20.996;2022-08-26T13:22:06;8.15;;;2.20;;
20322;SDS011;10319;52.206;20.996;2022-08-26T13:24:36;9.75;;;2.42;;
20322;SDS011;10319;52.206;20.996;2022-08-26T13:27:02;8.88;;;2.40;;
20322;SDS011;10319;52.206;20.996;2022-08-26T13:29:28;8.40;;;2.45;;
20322;SDS011;10319;52.206;20.996;2022-08-26T13:31:53;9.03;;;2.43;;
20322;SDS011;10319;52.206;20.996;2022-08-26T13:34:20;8.07;;;2.30;;
20322;SDS011;10319;52.206;20.996;2022-08-26T13:36:46;9.30;;;2.60;;
20322;SDS011;10319;52.206;20.996;2022-08-26T13:39:11;8.02;;;2.40;;
20322;SDS011;10319;52.206;20.996;2022-08-26T13:41:36;8.65;;;2.67;;
20322;SDS011;10319;52.206;20.996;2022-08-26T13:44:02;8.93;;;2.53;;
20322;SDS011;10319;52.206;20.996;2022-08-26T13:46:27;8.05;;;2.50;;
20322;SDS011;10319;52.206;20.996;2022-08-26T13:48:52;9.00;;;2.70;;
20322;SDS011;10319;52.206;20.996;2022-08-26T13:51:18;9.45;;;2.67;;
20322;SDS011;10319;52.206;20.996;2022-08-26T13:53:46;9.10;;;2.85;;
20322;SDS011;10319;52.206;20.996;2022-08-26T13:56:11;8.43;;;2.50;;
20322;SDS011;10319;52.206;20.996;2022-08-26T13:58:36;8.93;;;2.73;;
20322;SDS011;10319;52.206;20.996;2022-08-26T14:01:01;11.10;;;2.97;;
20322;SDS011;10319;52.206;20.996;2022-08-26T14:03:27;10.30;;;2.50;;
20322;SDS011;10319;52.206;20.996;2022-08-26T14:05:52;11.63;;;2.70;;
20322;SDS011;10319;52.206;20.996;2022-08-26T14:08:17;10.95;;;2.75;;
20322;SDS011;10319;52.206;20.996;2022-08-26T14:10:43;10.07;;;2.70;;
20322;SDS011;10319;52.206;20.996;2022-08-26T14:13:08;8.23;;;2.40;;
20322;SDS011;10319;52.206;20.996;2022-08-26T14:15:33;7.68;;;2.47;;
20322;SDS011;10319;52.206;20.996;2022-08-26T14:18:00;8.68;;;2.55;;
20322;SDS011;10319;52.206;20.996;2022-08-26T14:20:27;9.05;;;2.60;;
20322;SDS011;10319;52.206;20.996;2022-08-26T14:22:54;9.70;;;2.50;;
20322;SDS011;10319;52.206;20.996;2022-08-26T14:25:20;9.13;;;2.67;;
20322;SDS011;10319;52.206;20.996;2022-08-26T14:27:46;8.70;;;2.47;;
20322;SDS011;10319;52.206;20.996;2022-08-26T14:30:11;8.00;;;2.50;;
20322;SDS011;10319;52.206;20.996;2022-08-26T14:32:37;10.05;;;2.72;;
20322;SDS011;10319;52.206;20.996;2022-08-26T14:35:04;9.80;;;2.65;;
20322;SDS011;10319;52.206;20.996;2022-08-26T14:37:29;10.02;;;2.78;;
20322;SDS011;10319;52.206;20.996;2022-08-26T14:39:55;9.50;;;2.50;;
20322;SDS011;10319;52.206;20.996;2022-08-26T14:42:22;11.10;;;2.85;;
20322;SDS011;10319;52.206;20.996;2022-08-26T14:44:50;12.60;;;2.90;;
20322;SDS011;10319;52.206;20.996;2022-08-26T14:47:16;8.02;;;2.58;;
20322;SDS011;10319;52.206;20.996;2022-08-26T14:49:42;10.18;;;2.90;;
20322;SDS011;10319;52.206;20.996;2022-08-26T14:52:07;10.02;;;2.88;;
20322;SDS011;10319;52.206;20.996;2022-08-26T14:54:32;10.17;;;2.87;;
20322;SDS011;10319;52.206;20.996;2022-08-26T14:57:01;9.70;;;2.80;;
20322;SDS011;10319;52.206;20.996;2022-08-26T14:59:29;11.32;;;2.83;;
20322;SDS011;10319;52.206;20.996;2022-08-26T15:01:54;11.02;;;2.83;;
20322;SDS011;10319;52.206;20.996;2022-08-26T15:04:20;8.40;;;2.40;;
20322;SDS011;10319;52.206;20.996;2022-08-26T15:06:46;9.95;;;2.50;;
20322;SDS011;10319;52.206;20.996;2022-08-26T15:09:11;10.18;;;2.60;;
20322;SDS011;10319;52.206;20.996;2022-08-26T15:11:36;9.60;;;2.80;;
20322;SDS011;10319;52.206;20.996;2022-08-26T15:14:02;9.60;;;2.92;;
20322;SDS011;10319;52.206;20.996;2022-08-26T15:16:27;11.07;;;2.70;;
20322;SDS011;10319;52.206;20.996;2022-08-26T15:18:53;9.30;;;2.70;;
20322;SDS011;10319;52.206;20.996;2022-08-26T15:21:19;10.43;;;2.95;;
20322;SDS011;10319;52.206;20.996;2022-08-26T15:23:45;8.40;;;2.50;;
20322;SDS011;10319;52.206;20.996;2022-08-26T15:26:10;8.70;;;2.70;;
20322;SDS011;10319;52.206;20.996;2022-08-26T15:28:36;11.82;;;2.63;;
20322;SDS011;10319;52.206;20.996;2022-08-26T15:31:01;9.70;;;2.70;;
20322;SDS011;10319;52.206;20.996;2022-08-26T15:33:26;11.52;;;2.90;;
20322;SDS011;10319;52.206;20.996;2022-08-26T15:35:51;8.13;;;2.53;;
20322;SDS011;10319;52.206;20.996;2022-08-26T15:38:17;7.45;;;2.38;;